Time;durP1;ratioP1;P1;durP2;ratioP2;P2;SDS_P1;SDS_P2;PMS_P1;PMS_P2;Temp;Humidity;BMP_temperature;BMP_pressure;BME280_temperature;BME280_humidity;BME280_pressure;Samples;Min_cycle;Max_cycle;Signal;HPM_P1;HPM_P2
2021/09/04 00:01:01;;;;;;;18.10;7.60;;;;;;;13.19;69.03;100605.88;126326;1096;104137;-78
2021/09/04 00:03:29;;;;;;;19.17;7.30;;;;;;;13.17;69.40;100607.59;126282;1099;104297;-79
2021/09/04 00:05:59;;;;;;;19.77;7.63;;;;;;;13.13;69.38;100605.72;126368;1099;104245;-78
2021/09/04 00:08:26;;;;;;;15.40;6.83;;;;;;;13.09;69.60;100610.02;126280;1099;104280;-76
2021/09/04 00:10:56;;;;;;;17.27;7.50;;;;;;;13.06;69.91;100604.67;126313;1099;104265;-78
2021/09/04 00:13:25;;;;;;;15.37;6.70;;;;;;;13.06;70.11;100606.42;126351;1098;118663;-79
2021/09/04 00:15:55;;;;;;;19.47;7.87;;;;;;;13.08;70.25;100608.22;126222;1099;104136;-79
2021/09/04 00:18:29;;;;;;;19.55;8.00;;;;;;;13.11;70.04;100602.16;126286;1099;104152;-78
2021/09/04 00:20:59;;;;;;;19.55;8.30;;;;;;;13.14;70.32;100604.88;126331;1099;104150;-79
2021/09/04 00:23:28;;;;;;;18.43;7.53;;;;;;;13.19;70.22;100605.00;126294;1099;104146;-78
2021/09/04 00:25:57;;;;;;;17.67;8.37;;;;;;;13.20;70.04;100607.67;126363;1099;104146;-78
2021/09/04 00:28:25;;;;;;;16.20;7.33;;;;;;;13.24;70.33;100614.79;126341;1099;104158;-79
2021/09/04 00:30:54;;;;;;;20.13;7.57;;;;;;;13.26;70.41;100609.56;126334;1099;104181;-78
2021/09/04 00:33:22;;;;;;;17.63;6.87;;;;;;;13.28;70.33;100600.86;126274;1099;104274;-79
2021/09/04 00:35:50;;;;;;;16.90;7.23;;;;;;;13.28;70.42;100600.86;126353;1096;104146;-79
2021/09/04 00:38:18;;;;;;;20.93;7.70;;;;;;;13.27;70.86;100604.33;126356;1099;104215;-79
2021/09/04 00:40:47;;;;;;;17.57;8.13;;;;;;;13.29;70.56;100601.73;126240;1099;104274;-78
2021/09/04 00:43:15;;;;;;;17.10;7.80;;;;;;;13.28;70.28;100597.34;126275;1098;104134;-78
2021/09/04 00:45:43;;;;;;;19.23;8.10;;;;;;;13.23;70.77;100597.22;126311;1099;104268;-78
2021/09/04 00:48:11;;;;;;;20.67;7.77;;;;;;;13.24;70.64;100596.34;126332;1099;104169;-79
2021/09/04 00:50:40;;;;;;;18.00;7.23;;;;;;;13.23;70.48;100594.58;126351;1099;104258;-78
2021/09/04 00:53:09;;;;;;;18.50;7.10;;;;;;;13.19;70.78;100595.34;126240;1099;104219;-78
2021/09/04 00:55:37;;;;;;;16.27;7.40;;;;;;;13.19;71.26;100590.07;126356;1099;104153;-79
2021/09/04 00:58:05;;;;;;;18.77;7.53;;;;;;;13.18;70.97;100593.55;126332;1097;104223;-78
2021/09/04 01:00:35;;;;;;;16.70;7.45;;;;;;;13.14;71.35;100591.70;126350;1099;104268;-79
2021/09/04 01:03:04;;;;;;;18.00;7.40;;;;;;;13.12;71.23;100589.03;126237;1099;104597;-79
2021/09/04 01:05:33;;;;;;;18.40;7.40;;;;;;;13.07;71.15;100589.74;126314;1099;104178;-78
2021/09/04 01:08:04;;;;;;;18.73;7.70;;;;;;;13.01;71.01;100593.13;126301;1099;104155;-77
2021/09/04 01:10:33;;;;;;;16.10;6.97;;;;;;;12.99;71.58;100593.92;126359;1099;104146;-77
2021/09/04 01:13:03;;;;;;;14.80;6.70;;;;;;;12.97;71.20;100588.61;126303;1097;104147;-78
2021/09/04 01:15:33;;;;;;;18.57;7.30;;;;;;;12.93;71.45;100590.28;126307;1099;104322;-78
2021/09/04 01:18:03;;;;;;;17.60;7.03;;;;;;;12.88;71.39;100583.97;126321;1098;104214;-78
2021/09/04 01:20:32;;;;;;;18.13;7.27;;;;;;;12.88;71.61;100577.82;126308;1099;104201;-78
2021/09/04 01:23:02;;;;;;;16.53;7.20;;;;;;;12.84;71.50;100582.13;126282;1099;104277;-78
2021/09/04 01:25:32;;;;;;;15.00;7.00;;;;;;;12.80;71.97;100584.62;126386;1099;104183;-79
2021/09/04 01:28:03;;;;;;;20.27;7.40;;;;;;;12.72;71.60;100577.39;126360;1099;104236;-78
2021/09/04 01:30:33;;;;;;;19.27;6.77;;;;;;;12.70;71.83;100575.55;126309;1099;104150;-78
2021/09/04 01:33:01;;;;;;;17.40;7.10;;;;;;;12.66;72.01;100576.34;126289;1099;104146;-78
2021/09/04 01:35:30;;;;;;;17.97;7.00;;;;;;;12.64;71.66;100578.05;126355;1099;104172;-78
2021/09/04 01:37:58;;;;;;;14.90;6.10;;;;;;;12.62;72.12;100575.37;126370;1099;104156;-79
2021/09/04 01:40:27;;;;;;;14.33;6.47;;;;;;;12.61;72.16;100570.94;126373;1099;104198;-78
2021/09/04 01:42:55;;;;;;;14.53;6.53;;;;;;;12.58;71.92;100569.10;126291;1099;104152;-78
2021/09/04 01:45:23;;;;;;;17.57;6.60;;;;;;;12.57;72.19;100577.87;126328;1099;104272;-78
2021/09/04 01:47:51;;;;;;;14.67;6.53;;;;;;;12.54;72.45;100574.23;126298;1099;104120;-78
2021/09/04 01:50:19;;;;;;;13.37;6.70;;;;;;;12.50;72.49;100575.89;126350;1099;104274;-78
2021/09/04 01:52:48;;;;;;;16.67;6.90;;;;;;;12.47;72.64;100575.80;126368;1099;104277;-78
2021/09/04 01:55:19;;;;;;;15.87;7.40;;;;;;;12.47;72.70;100578.44;126245;1099;105483;-77
2021/09/04 01:57:47;;;;;;;15.87;6.97;;;;;;;12.47;72.66;100580.19;126299;1099;104741;-78
2021/09/04 02:00:17;;;;;;;15.57;7.40;;;;;;;12.47;72.48;100581.06;126322;1099;104191;-78
2021/09/04 02:02:45;;;;;;;18.50;6.77;;;;;;;12.46;72.68;100573.13;126366;1099;104140;-78
2021/09/04 02:05:13;;;;;;;15.03;7.00;;;;;;;12.44;72.69;100569.56;126236;1099;104291;-79
2021/09/04 02:07:41;;;;;;;15.20;6.70;;;;;;;12.45;73.16;100563.44;126321;1099;104181;-79
2021/09/04 02:10:11;;;;;;;23.47;7.33;;;;;;;12.45;72.78;100564.35;126326;1099;104149;-78
2021/09/04 02:12:39;;;;;;;16.40;6.80;;;;;;;12.47;72.98;100565.27;126328;1099;104174;-79
2021/09/04 02:15:10;;;;;;;16.13;6.70;;;;;;;12.47;72.96;100567.03;126303;1099;104146;-77
2021/09/04 02:17:39;;;;;;;15.50;6.30;;;;;;;12.45;72.73;100566.98;126338;1099;104159;-78
2021/09/04 02:20:09;;;;;;;16.40;6.80;;;;;;;12.45;73.10;100566.98;126312;1099;104140;-79
2021/09/04 02:22:37;;;;;;;17.33;6.80;;;;;;;12.43;73.10;100563.39;126360;1099;104140;-78
2021/09/04 02:25:08;;;;;;;14.75;6.55;;;;;;;12.38;73.24;100559.74;126309;1099;104185;-79
2021/09/04 02:27:38;;;;;;;14.23;6.40;;;;;;;12.32;73.59;100555.18;126334;1099;104226;-78
2021/09/04 02:30:09;;;;;;;15.43;6.40;;;;;;;12.28;73.46;100560.30;126322;1099;104233;-78
2021/09/04 02:32:39;;;;;;;15.83;6.20;;;;;;;12.26;73.64;100560.26;126343;1099;104312;-78
2021/09/04 02:35:08;;;;;;;16.20;6.73;;;;;;;12.24;73.57;100551.44;126295;1099;104169;-78
2021/09/04 02:37:36;;;;;;;15.63;6.83;;;;;;;12.25;73.50;100558.50;126298;1097;104192;-79
2021/09/04 02:40:06;;;;;;;15.07;6.23;;;;;;;12.27;73.58;100559.42;126312;1099;104275;-78
2021/09/04 02:42:34;;;;;;;17.23;7.30;;;;;;;12.30;73.68;100550.74;126352;1099;104168;-78
2021/09/04 02:45:03;;;;;;;15.53;6.70;;;;;;;12.31;73.75;100549.88;126224;1099;104289;-78
2021/09/04 02:47:35;;;;;;;15.13;6.30;;;;;;;12.30;73.63;100550.74;126318;1099;104145;-78
2021/09/04 02:50:04;;;;;;;18.33;6.70;;;;;;;12.31;73.78;100544.61;126321;1099;104149;-79
2021/09/04 02:52:32;;;;;;;16.83;6.90;;;;;;;12.31;73.66;100549.88;126332;1099;104220;-79
2021/09/04 02:55:00;;;;;;;13.13;6.30;;;;;;;12.37;74.06;100550.05;126261;1098;104194;-79
2021/09/04 02:57:29;;;;;;;14.20;5.90;;;;;;;12.39;73.90;100553.64;126313;1099;104146;-78
2021/09/04 02:59:59;;;;;;;17.27;6.40;;;;;;;12.41;74.12;100555.45;126279;1099;104136;-78
2021/09/04 03:02:28;;;;;;;16.63;6.70;;;;;;;12.45;73.86;100558.17;126333;1098;104146;-78
2021/09/04 03:04:56;;;;;;;16.97;6.20;;;;;;;12.48;73.90;100553.91;126286;1098;104233;-78
2021/09/04 03:07:24;;;;;;;14.10;6.13;;;;;;;12.52;73.92;100553.13;126341;1099;104143;-79
2021/09/04 03:09:53;;;;;;;15.13;6.27;;;;;;;12.53;73.81;100549.66;126295;1099;104307;-78
2021/09/04 03:12:21;;;;;;;14.63;6.53;;;;;;;12.52;73.85;100558.39;126305;1099;104146;-78
2021/09/04 03:14:50;;;;;;;15.10;6.13;;;;;;;12.50;73.96;100554.84;126190;1099;104284;-77
2021/09/04 03:17:18;;;;;;;15.07;5.97;;;;;;;12.44;74.10;100554.66;126248;1099;104184;-79
2021/09/04 03:19:47;;;;;;;15.93;6.30;;;;;;;12.40;74.23;100553.69;126280;1099;104198;-78
2021/09/04 03:23:11;;;;;;;16.77;6.50;;;;;;;12.33;74.23;100563.98;125238;1102;104143;-78
2021/09/04 03:25:42;;;;;;;16.57;7.27;;;;;;;12.28;74.41;100568.20;125227;1102;104149;-78
2021/09/04 03:28:13;;;;;;;16.00;6.73;;;;;;;12.21;74.71;100572.39;125185;1102;104142;-79
2021/09/04 03:30:47;;;;;;;13.40;6.00;;;;;;;12.19;74.61;100574.09;125224;1102;104679;-77
2021/09/04 03:33:18;;;;;;;13.60;6.37;;;;;;;12.18;74.46;100570.55;125112;1102;104143;-77
2021/09/04 03:35:50;;;;;;;17.37;6.03;;;;;;;12.17;74.59;100567.88;125187;1102;104169;-77
2021/09/04 03:38:21;;;;;;;12.43;5.90;;;;;;;12.19;74.66;100572.34;125156;1102;104184;-77
2021/09/04 03:40:53;;;;;;;13.97;6.10;;;;;;;12.23;74.57;100576.87;125167;1102;104159;-77
2021/09/04 03:43:24;;;;;;;14.40;6.00;;;;;;;12.27;74.66;100577.84;125133;1102;104254;-77
2021/09/04 03:45:55;;;;;;;14.87;6.20;;;;;;;12.31;74.57;100571.84;125137;1102;104319;-78
2021/09/04 03:48:29;;;;;;;16.02;6.47;;;;;;;12.38;75.04;100575.53;125198;1102;104146;-79
2021/09/04 03:51:00;;;;;;;15.03;6.50;;;;;;;12.43;74.80;100579.18;125223;1102;104143;-78
2021/09/04 03:53:31;;;;;;;15.33;6.43;;;;;;;12.49;74.62;100575.84;125141;1102;104255;-78
2021/09/04 03:56:01;;;;;;;11.77;5.80;;;;;;;12.52;74.72;100574.19;125131;1102;104149;-78
2021/09/04 03:58:34;;;;;;;17.47;6.43;;;;;;;12.56;74.83;100576.07;125102;1102;104194;-78
2021/09/04 04:01:07;;;;;;;14.00;5.70;;;;;;;12.58;74.52;100569.10;125194;1102;104172;-78
2021/09/04 04:03:39;;;;;;;11.73;5.97;;;;;;;12.62;74.66;100570.10;125156;1102;104252;-77
2021/09/04 04:06:10;;;;;;;15.43;6.33;;;;;;;12.65;74.78;100579.80;124910;1102;104201;-78
2021/09/04 04:08:42;;;;;;;16.03;6.70;;;;;;;12.64;74.67;100578.05;125165;1102;104224;-79
2021/09/04 04:11:15;;;;;;;15.53;6.47;;;;;;;12.64;74.63;100580.67;125200;1102;104195;-78
2021/09/04 04:13:47;;;;;;;15.20;5.93;;;;;;;12.61;74.55;100588.48;125077;1102;104149;-79
2021/09/04 04:16:20;;;;;;;13.85;6.15;;;;;;;12.58;74.88;100587.52;125114;1102;104153;-78
2021/09/04 04:18:51;;;;;;;15.13;5.93;;;;;;;12.56;74.52;100585.72;125145;1102;104155;-78
2021/09/04 04:21:23;;;;;;;17.50;6.30;;;;;;;12.55;74.70;100583.92;125161;1102;104175;-78
2021/09/04 04:23:54;;;;;;;12.70;6.07;;;;;;;12.55;74.80;100584.80;125087;1102;104195;-79
2021/09/04 04:26:25;;;;;;;15.93;5.93;;;;;;;12.58;74.42;100586.64;125202;1102;104271;-78
2021/09/04 04:28:58;;;;;;;13.17;5.50;;;;;;;12.61;74.75;100599.02;125190;1102;104172;-78
2021/09/04 04:31:30;;;;;;;16.30;6.33;;;;;;;12.63;75.12;100592.92;125254;1101;104271;-79
2021/09/04 04:34:02;;;;;;;15.27;5.90;;;;;;;12.65;74.80;100598.23;125184;1102;104298;-77
2021/09/04 04:36:34;;;;;;;14.63;6.13;;;;;;;12.68;74.82;100593.05;125177;1102;104191;-76
2021/09/04 04:39:07;;;;;;;20.47;6.03;;;;;;;12.72;74.42;100592.30;125163;1101;104156;-78
2021/09/04 04:41:40;;;;;;;14.10;6.07;;;;;;;12.74;74.92;100587.97;125161;1102;104146;-78
2021/09/04 04:44:16;;;;;;;14.63;6.03;;;;;;;12.78;74.71;100595.12;125243;1102;104146;-78
2021/09/04 04:46:48;;;;;;;13.73;5.83;;;;;;;12.81;75.00;100597.84;125191;1102;104137;-78
2021/09/04 04:49:19;;;;;;;16.33;6.17;;;;;;;12.89;74.74;100598.05;124951;1102;104322;-78
2021/09/04 04:51:51;;;;;;;13.23;5.77;;;;;;;12.94;74.66;100592.04;125231;1102;104597;-78
2021/09/04 04:54:22;;;;;;;14.17;5.60;;;;;;;13.00;74.81;100588.69;125142;1102;104293;-78
2021/09/04 04:56:54;;;;;;;12.20;5.80;;;;;;;13.06;75.01;100595.88;125160;1102;104175;-79
2021/09/04 04:59:25;;;;;;;13.00;5.40;;;;;;;13.12;74.90;100594.30;125055;1102;105152;-78
2021/09/04 05:01:57;;;;;;;14.43;5.70;;;;;;;13.16;74.78;100597.89;125146;1102;104197;-78
2021/09/04 05:04:28;;;;;;;12.70;5.97;;;;;;;13.22;74.55;100592.78;125130;1102;104169;-79
2021/09/04 05:06:59;;;;;;;13.43;5.93;;;;;;;13.26;74.58;100597.30;125314;1102;104251;-78
2021/09/04 05:09:33;;;;;;;15.03;5.80;;;;;;;13.28;74.40;100589.44;125233;1102;104166;-78
2021/09/04 05:12:05;;;;;;;15.07;5.93;;;;;;;13.29;74.54;100581.57;125224;1102;104233;-80
2021/09/04 05:14:36;;;;;;;14.10;6.07;;;;;;;13.34;74.98;100583.44;125113;1102;104216;-78
2021/09/04 05:17:16;;;;;;;13.90;6.20;;;;;;;13.40;74.52;100583.60;125255;1102;104155;-78
2021/09/04 05:19:50;;;;;;;16.07;6.57;;;;;;;13.45;74.29;100595.17;125182;1102;104618;-77
2021/09/04 05:22:21;;;;;;;14.30;5.80;;;;;;;13.50;74.38;100595.30;125226;1102;104241;-78
2021/09/04 05:24:53;;;;;;;13.30;6.00;;;;;;;13.54;74.33;100598.05;125110;1102;104251;-78
2021/09/04 05:27:24;;;;;;;15.30;6.17;;;;;;;13.59;74.41;100590.25;125164;1102;104234;-78
2021/09/04 05:29:54;;;;;;;19.20;6.83;;;;;;;13.64;74.31;100589.49;125035;1102;104162;-78
2021/09/04 05:32:26;;;;;;;13.90;5.83;;;;;;;13.72;74.46;100591.44;125170;1102;104195;-77
2021/09/04 05:34:59;;;;;;;12.80;5.47;;;;;;;13.79;74.50;100588.08;125120;1102;104599;-78
2021/09/04 05:37:30;;;;;;;14.20;5.22;;;;;;;13.82;73.60;100593.42;125154;1102;104219;-78
2021/09/04 05:40:02;;;;;;;11.07;5.57;;;;;;;13.87;73.86;100585.62;125156;1102;104338;-78
2021/09/04 05:42:33;;;;;;;12.87;5.60;;;;;;;13.92;74.19;100581.37;125222;1102;104249;-79
2021/09/04 05:45:04;;;;;;;15.20;5.93;;;;;;;13.98;73.81;100589.42;125159;1102;104224;-77
2021/09/04 05:47:35;;;;;;;15.87;5.87;;;;;;;14.03;73.62;100586.02;125013;1105;104146;-78
2021/09/04 05:50:07;;;;;;;15.73;5.87;;;;;;;14.08;73.53;100585.24;125125;1102;104142;-76
2021/09/04 05:52:37;;;;;;;14.30;5.57;;;;;;;14.14;73.56;100580.98;125019;1102;104419;-79
2021/09/04 05:55:09;;;;;;;16.20;5.80;;;;;;;14.21;73.65;100584.67;125114;1102;104217;-78
2021/09/04 05:57:40;;;;;;;16.77;6.70;;;;;;;14.29;74.14;100576.89;125169;1102;105372;-78
2021/09/04 06:00:12;;;;;;;15.87;6.00;;;;;;;14.36;73.28;100578.82;125022;1102;104223;-78
2021/09/04 06:02:43;;;;;;;13.10;5.20;;;;;;;14.45;73.25;100571.09;125224;1102;104254;-78
2021/09/04 06:05:14;;;;;;;17.17;5.57;;;;;;;14.54;73.14;100570.41;125112;1102;104284;-78
2021/09/04 06:07:46;;;;;;;18.60;5.83;;;;;;;14.63;73.81;100567.99;125141;1102;104216;-78
2021/09/04 06:10:17;;;;;;;14.50;5.57;;;;;;;14.72;72.72;100568.17;125175;1102;104245;-77
2021/09/04 06:12:48;;;;;;;16.20;5.90;;;;;;;14.81;73.22;100575.38;125175;1102;104145;-78
2021/09/04 06:15:19;;;;;;;18.63;6.13;;;;;;;14.88;72.30;100582.57;124950;1102;104149;-76
2021/09/04 06:17:50;;;;;;;21.87;6.73;;;;;;;14.97;72.20;100580.95;125192;1102;104147;-77
2021/09/04 06:20:22;;;;;;;13.00;5.17;;;;;;;15.05;72.86;100587.27;125145;1102;104158;-78
2021/09/04 06:22:53;;;;;;;16.13;5.57;;;;;;;15.11;72.44;100595.31;125194;1102;104168;-78
2021/09/04 06:25:25;;;;;;;17.07;6.40;;;;;;;15.20;71.87;100594.60;125174;1102;104182;-77
2021/09/04 06:27:56;;;;;;;19.10;5.60;;;;;;;15.30;72.77;100585.95;125227;1102;104214;-78
2021/09/04 06:30:27;;;;;;;15.80;5.90;;;;;;;15.38;72.71;100586.09;125173;1102;104197;-78
2021/09/04 06:32:58;;;;;;;17.37;6.47;;;;;;;15.46;71.73;100589.78;125190;1102;104192;-78
2021/09/04 06:35:33;;;;;;;22.48;6.53;;;;;;;15.55;72.20;100589.03;125190;1102;104152;-78
2021/09/04 06:38:04;;;;;;;;;;;;;;;15.65;71.51;100588.33;125172;1102;104146;-79
2021/09/04 06:40:35;;;;;;;24.00;6.20;;;;;;;15.73;71.93;100591.98;125244;1102;104357;-78
2021/09/04 06:43:08;;;;;;;18.90;6.67;;;;;;;15.81;72.15;100590.37;125129;1102;104274;-78
2021/09/04 06:45:39;;;;;;;20.50;6.77;;;;;;;15.94;70.82;100580.89;125153;1102;104188;-78
2021/09/04 06:48:10;;;;;;;22.97;6.50;;;;;;;16.07;71.16;100587.24;125109;1102;109099;-78
2021/09/04 06:50:40;;;;;;;21.25;6.40;;;;;;;16.21;71.82;100587.45;125271;1102;104306;-79
2021/09/04 06:53:11;;;;;;;19.67;6.77;;;;;;;16.35;71.28;100592.93;125224;1102;104191;-78
2021/09/04 06:55:42;;;;;;;20.23;6.70;;;;;;;16.49;71.14;100580.75;125196;1102;104191;-77
2021/09/04 06:58:13;;;;;;;19.20;7.23;;;;;;;16.66;70.88;100582.73;124954;1102;104153;-78
2021/09/04 07:00:44;;;;;;;17.53;5.77;;;;;;;16.82;70.59;100584.67;125183;1102;104156;-78
2021/09/04 07:03:15;;;;;;;15.43;5.80;;;;;;;17.00;70.56;100585.78;125019;1102;104146;-78
2021/09/04 07:05:48;;;;;;;22.07;6.20;;;;;;;17.19;70.25;100582.45;125214;1102;104219;-79
2021/09/04 07:08:19;;;;;;;18.27;5.87;;;;;;;17.36;69.73;100590.58;125095;1102;104299;-78
2021/09/04 07:10:50;;;;;;;18.97;6.10;;;;;;;17.55;69.68;100583.66;125187;1102;104171;-79
2021/09/04 07:13:22;;;;;;;13.20;5.43;;;;;;;17.70;69.67;100584.66;125181;1102;104216;-80
2021/09/04 07:15:55;;;;;;;12.90;5.23;;;;;;;17.85;69.14;100587.43;125183;1102;104175;-78
2021/09/04 07:18:27;;;;;;;12.63;5.15;;;;;;;18.04;68.55;100582.28;125171;1102;104147;-77
2021/09/04 07:20:59;;;;;;;11.50;5.13;;;;;;;18.27;66.63;100579.77;125179;1102;104604;-78
2021/09/04 07:23:30;;;;;;;14.63;5.40;;;;;;;18.47;67.37;100571.91;125018;1102;104201;-77
2021/09/04 07:26:02;;;;;;;13.47;5.33;;;;;;;18.60;67.93;100573.70;125159;1102;104146;-78
2021/09/04 07:28:33;;;;;;;10.60;5.60;;;;;;;18.75;66.83;100577.33;125094;1102;104229;-77
2021/09/04 07:31:04;;;;;;;11.70;5.57;;;;;;;18.92;66.74;100575.64;125254;1102;104146;-78
2021/09/04 07:33:36;;;;;;;13.67;5.53;;;;;;;19.18;65.79;100581.02;125158;1102;104585;-77
2021/09/04 07:36:10;;;;;;;12.90;5.20;;;;;;;19.37;66.09;100573.06;125184;1102;104370;-79
2021/09/04 07:38:40;;;;;;;15.68;5.67;;;;;;;19.53;64.18;100577.48;125097;1102;104409;-77
2021/09/04 07:41:12;;;;;;;15.10;5.30;;;;;;;19.70;63.36;100580.14;125146;1102;104277;-78
2021/09/04 07:43:45;;;;;;;12.67;5.97;;;;;;;19.89;63.56;100575.72;125162;1101;104230;-78
2021/09/04 07:46:15;;;;;;;;;;;;;;;20.01;60.41;100577.48;125187;1102;104239;-77
2021/09/04 07:48:49;;;;;;;12.67;5.90;;;;;;;20.15;62.24;100576.55;125091;1102;104133;-77
2021/09/04 07:51:21;;;;;;;16.37;6.90;;;;;;;20.29;62.09;100574.76;125106;1102;104606;-77
2021/09/04 07:53:52;;;;;;;15.97;5.90;;;;;;;20.44;61.26;100576.47;125140;1102;104337;-77
2021/09/04 07:56:24;;;;;;;14.13;5.57;;;;;;;20.65;60.84;100573.75;125130;1102;104233;-77
2021/09/04 07:58:55;;;;;;;12.77;6.33;;;;;;;20.82;60.32;100573.67;125087;1102;104162;-77
2021/09/04 08:01:25;;;;;;;13.57;5.60;;;;;;;20.95;59.73;100565.60;125143;1102;104210;-77
2021/09/04 08:03:56;;;;;;;12.30;5.53;;;;;;;21.09;60.89;100566.39;124963;1102;104143;-78
2021/09/04 08:06:29;;;;;;;15.17;5.83;;;;;;;21.07;59.76;100561.98;125147;1102;104188;-78
2021/09/04 08:09:00;;;;;;;11.40;5.87;;;;;;;21.15;60.28;100568.14;124962;1102;104243;-78
2021/09/04 08:11:31;;;;;;;11.20;5.70;;;;;;;21.14;60.00;100574.36;125119;1102;104329;-77
2021/09/04 08:14:02;;;;;;;15.60;5.97;;;;;;;21.10;57.41;100573.52;124974;1102;104156;-78
2021/09/04 08:16:33;;;;;;;13.77;5.70;;;;;;;21.13;59.14;100573.49;125083;1101;104143;-77
2021/09/04 08:19:04;;;;;;;14.47;6.20;;;;;;;21.24;58.68;100580.52;125071;1102;104223;-77
2021/09/04 08:21:36;;;;;;;14.70;6.15;;;;;;;21.29;56.81;100573.39;125169;1102;104233;-77
2021/09/04 08:24:07;;;;;;;11.23;5.87;;;;;;;21.31;57.40;100574.25;125083;1102;104181;-76
2021/09/04 08:26:38;;;;;;;17.37;6.17;;;;;;;21.31;56.35;100575.13;125101;1102;104309;-77
2021/09/04 08:29:10;;;;;;;15.97;5.87;;;;;;;21.35;57.17;100568.88;125130;1102;104179;-78
2021/09/04 08:31:41;;;;;;;11.80;5.90;;;;;;;21.43;57.11;100570.62;125192;1102;104213;-78
2021/09/04 08:34:13;;;;;;;16.77;5.97;;;;;;;21.48;57.24;100576.80;125155;1102;104182;-78
2021/09/04 08:36:44;;;;;;;13.83;6.50;;;;;;;21.57;57.50;100567.88;125153;1102;104245;-79
2021/09/04 08:39:15;;;;;;;16.83;6.20;;;;;;;21.62;57.32;100568.70;125160;1102;104155;-77
2021/09/04 08:41:46;;;;;;;14.00;5.80;;;;;;;21.69;55.94;100573.08;125082;1102;104219;-76
2021/09/04 08:44:18;;;;;;;17.33;6.40;;;;;;;21.75;56.39;100564.13;125183;1102;104166;-78
2021/09/04 08:46:50;;;;;;;11.90;5.93;;;;;;;21.77;55.53;100562.33;125117;1102;104316;-78
2021/09/04 08:49:22;;;;;;;19.87;6.50;;;;;;;21.84;56.07;100556.91;125136;1102;105562;-78
2021/09/04 08:51:53;;;;;;;14.87;6.43;;;;;;;21.94;55.75;100560.39;125298;1102;104582;-77
2021/09/04 08:54:23;;;;;;;18.60;6.50;;;;;;;21.99;54.62;100560.35;125100;1102;104153;-77
2021/09/04 08:56:57;;;;;;;13.75;6.62;;;;;;;22.00;55.59;100568.35;125192;1102;104188;-77
2021/09/04 08:59:28;;;;;;;15.60;6.33;;;;;;;22.04;55.46;100563.84;125123;1102;104195;-78
2021/09/04 09:01:59;;;;;;;13.27;6.20;;;;;;;22.05;55.21;100561.16;124993;1102;104354;-77
2021/09/04 09:04:32;;;;;;;12.73;6.10;;;;;;;22.10;54.84;100563.78;125123;1102;104242;-78
2021/09/04 09:07:03;;;;;;;14.47;6.20;;;;;;;22.12;54.94;100564.64;125145;1102;104159;-78
2021/09/04 09:09:36;;;;;;;14.57;6.70;;;;;;;22.14;54.06;100567.30;125077;1102;104178;-77
2021/09/04 09:12:14;;;;;;;14.30;6.58;;;;;;;22.15;53.62;100569.08;125138;1102;104184;-78
2021/09/04 09:14:58;;;;;;;15.23;6.40;;;;;;;22.13;53.23;100576.20;125187;1102;104207;-77
2021/09/04 09:17:31;;;;;;;12.87;6.37;;;;;;;22.12;52.85;100577.13;125190;1102;104213;-77
2021/09/04 09:20:09;;;;;;;14.03;6.70;;;;;;;22.14;53.36;100569.97;125126;1102;104156;-78
2021/09/04 09:22:49;;;;;;;16.63;7.23;;;;;;;22.14;52.78;100573.52;125196;1102;104159;-77
2021/09/04 09:25:22;;;;;;;19.47;7.37;;;;;;;22.14;52.62;100570.84;125251;1102;104149;-77
2021/09/04 09:28:08;;;;;;;13.47;6.70;;;;;;;22.17;52.22;100580.63;125123;1102;104302;-77
2021/09/04 09:30:41;;;;;;;16.20;7.17;;;;;;;22.21;51.84;100572.56;125151;1102;104246;-78
2021/09/04 09:33:15;;;;;;;13.90;6.90;;;;;;;22.28;50.88;100575.16;125187;1102;104245;-77
2021/09/04 09:35:48;;;;;;;14.83;6.95;;;;;;;22.33;50.84;100570.67;125180;1102;104152;-79
2021/09/04 09:38:22;;;;;;;14.40;7.23;;;;;;;22.40;51.79;100572.39;125230;1102;104198;-77
2021/09/04 09:40:56;;;;;;;17.57;7.07;;;;;;;22.46;50.54;100577.66;125230;1102;104155;-77
2021/09/04 09:43:32;;;;;;;14.47;7.03;;;;;;;22.45;50.19;100562.51;125199;1102;104144;-78
2021/09/04 09:46:07;;;;;;;15.47;7.33;;;;;;;22.34;50.89;100561.77;125120;1102;104206;-79
2021/09/04 09:48:42;;;;;;;18.87;7.80;;;;;;;22.40;50.30;100561.69;125262;1102;104155;-78
2021/09/04 09:51:16;;;;;;;16.35;7.00;;;;;;;22.32;48.94;100561.78;125220;1102;104252;-79
2021/09/04 09:53:46;;;;;;;15.20;7.63;;;;;;;22.26;48.59;100568.03;125217;1102;104160;-76
2021/09/04 09:56:17;;;;;;;16.90;8.03;;;;;;;22.30;47.75;100560.92;125242;1102;104149;-78
2021/09/04 09:58:49;;;;;;;15.57;7.80;;;;;;;22.34;46.93;100565.31;125194;1102;104309;-78
2021/09/04 10:01:20;;;;;;;15.03;7.73;;;;;;;22.46;47.00;100566.97;125132;1102;104149;-78
2021/09/04 10:03:54;;;;;;;14.70;7.70;;;;;;;22.66;46.67;100576.50;125141;1102;104172;-77
2021/09/04 10:06:26;;;;;;;18.77;8.23;;;;;;;22.79;47.23;100556.73;125156;1102;104161;-78
2021/09/04 10:08:58;;;;;;;17.42;8.18;;;;;;;22.78;46.55;100555.85;125221;1102;104650;-77
2021/09/04 10:11:31;;;;;;;17.40;8.10;;;;;;;22.76;46.47;100567.47;125152;1102;102506;-78
2021/09/04 10:14:02;;;;;;;14.23;7.33;;;;;;;22.80;46.36;100566.53;125247;1102;104198;-77
2021/09/04 10:16:36;;;;;;;16.33;7.97;;;;;;;22.87;46.21;100573.55;125195;1102;104143;-78
2021/09/04 10:19:08;;;;;;;16.67;8.20;;;;;;;22.93;46.56;100560.09;125180;1101;105277;-79
2021/09/04 10:21:41;;;;;;;16.10;8.83;;;;;;;22.91;44.55;100572.61;125174;1102;104185;-77
2021/09/04 10:24:14;;;;;;;17.25;8.53;;;;;;;22.74;45.45;100567.48;125247;1102;104158;-77
2021/09/04 10:26:46;;;;;;;15.47;8.30;;;;;;;22.69;45.22;100563.09;125244;1102;104573;-78
2021/09/04 10:29:19;;;;;;;18.27;8.20;;;;;;;22.88;45.58;100559.27;125235;1101;104178;-78
2021/09/04 10:32:00;;;;;;;17.80;7.65;;;;;;;23.06;44.33;100562.59;125157;1102;104256;-77
2021/09/04 10:34:35;;;;;;;17.47;7.67;;;;;;;23.18;44.80;100564.23;125201;1102;104238;-78
2021/09/04 10:37:15;;;;;;;15.53;8.13;;;;;;;23.03;44.68;100559.95;125214;1102;104143;-78
2021/09/04 10:39:59;;;;;;;17.60;7.83;;;;;;;22.86;44.55;100555.75;125144;1102;104140;-77
2021/09/04 10:42:32;;;;;;;16.67;8.25;;;;;;;22.74;44.59;100561.27;125198;1102;105562;-78
2021/09/04 10:45:06;;;;;;;19.48;7.75;;;;;;;22.64;44.22;100564.95;125257;1102;104300;-76
2021/09/04 10:47:47;;;;;;;18.93;8.53;;;;;;;22.47;44.08;100558.05;125248;1102;104152;-79
2021/09/04 10:50:21;;;;;;;17.80;8.20;;;;;;;22.52;44.57;100556.20;125171;1102;104152;-78
2021/09/04 10:52:56;;;;;;;;;;;;;;;22.57;42.80;100565.03;125238;1102;104150;-76
2021/09/04 10:55:28;;;;;;;20.40;8.03;;;;;;;22.67;44.38;100556.89;125263;1102;104278;-78
2021/09/04 10:58:07;;;;;;;15.43;7.78;;;;;;;22.77;44.37;100561.23;125174;1102;104192;-78
2021/09/04 11:00:42;;;;;;;16.03;7.67;;;;;;;22.81;43.53;100557.58;125191;1102;104191;-79
2021/09/04 11:03:14;;;;;;;18.07;7.50;;;;;;;22.85;42.75;100553.09;125211;1102;111823;-76
2021/09/04 11:05:48;;;;;;;17.77;8.07;;;;;;;22.88;43.73;100553.92;125229;1102;104236;-78
2021/09/04 11:08:37;;;;;;;13.70;7.37;;;;;;;22.97;42.41;100560.95;125241;1101;104146;-78
2021/09/04 11:11:28;;;;;;;15.83;6.57;;;;;;;23.08;42.63;100555.44;125209;1102;104294;-78
2021/09/04 11:14:01;;;;;;;16.33;8.10;;;;;;;23.26;43.40;100562.31;125226;1102;104219;-78
2021/09/04 11:16:47;;;;;;;13.57;6.93;;;;;;;23.30;42.50;100554.22;125192;1102;104213;-78
2021/09/04 11:19:22;;;;;;;14.50;7.53;;;;;;;23.44;43.34;100550.44;125231;1102;104143;-78
2021/09/04 11:22:07;;;;;;;13.93;6.90;;;;;;;23.49;41.57;100545.88;125149;1102;104156;-78